Middletown, Missouri
Current Conditions -  °F | °C
As of 3:35 PM on Thursday 27 Nov 2014 (Local Time) from KHAE Reporting Station
Clear Clear  
Wind Chill: 21°   Ceiling: Unl
Heat Index: 27°   Visibility: 10mi
Dew Point: 14°   Wind: 5mph
Humidity: 59%   Direction: 350°N
Pressure: 30.46"   Gusts: NA
Location:  39.13°N, 91.41°W
Report Text: KHAE 272135Z AUTO 35004KT 10SM CLR M03/M10 A3046 RMK AO2
Loading
Personal Weather Stations






























Interactive Weather Map New forecast layout! Learn more

10-Day Weather Forecast

Advertisements
Track Severe Weather on mobile